<?xml version="1.0" encoding="UTF-8" standalone="no" ?><gpx xmlns="http://www.topografix.com/GPX/1/1" xmlns:gpxx="http://www.garmin.com/xmlschemas/GpxExtensions/v3" xmlns:wptx1="http://www.garmin.com/xmlschemas/WaypointExtension/v1" xmlns:gpxtpx="http://www.garmin.com/xmlschemas/TrackPointExtension/v1" creator="GuideVTT.com" version="1.1" xmlns:xsi="http://www.w3.org/2001/XMLSchema-instance" xsi:schemaLocation="http://www.topografix.com/GPX/1/1 http://www.topografix.com/GPX/1/1/gpx.xsd http://www.garmin.com/xmlschemas/GpxExtensions/v3 http://www8.garmin.com/xmlschemas/GpxExtensionsv3.xsd http://www.garmin.com/xmlschemas/WaypointExtension/v1 http://www8.garmin.com/xmlschemas/WaypointExtensionv1.xsd http://www.garmin.com/xmlschemas/TrackPointExtension/v1 http://www.garmin.com/xmlschemas/TrackPointExtensionv1.xsd">
<metadata><link href="http://www.garmin.com"><text>Garmin International</text></link><time>2013-06-22T15:13:50Z</time></metadata>
<trk><name>rp_sortie3.gpx</name><extensions><gpxx:TrackExtension><gpxx:DisplayColor>Cyan</gpxx:DisplayColor></gpxx:TrackExtension></extensions><trkseg>
<trkpt lat="47.41495371" lon="7.07549572"><ele>441.382446</ele><time>2006-04-20T15:47:59Z</time></trkpt>
<trkpt lat="47.41497517" lon="7.07540989"><ele>441.382446</ele><time>2006-04-20T15:48:18Z</time></trkpt>
<trkpt lat="47.41491079" lon="7.07523823"><ele>441.382446</ele><time>2006-04-20T15:48:34Z</time></trkpt>
<trkpt lat="47.41482496" lon="7.07513094"><ele>441.382446</ele><time>2006-04-20T15:48:37Z</time></trkpt>
<trkpt lat="47.41471767" lon="7.07483053"><ele>441.382446</ele><time>2006-04-20T15:48:43Z</time></trkpt>
<trkpt lat="47.41476059" lon="7.07472324"><ele>441.382446</ele><time>2006-04-20T15:48:57Z</time></trkpt>
<trkpt lat="47.41441727" lon="7.07407951"><ele>439.94043</ele><time>2006-04-20T15:49:07Z</time></trkpt>
<trkpt lat="47.41415977" lon="7.07397223"><ele>439.94043</ele><time>2006-04-20T15:49:12Z</time></trkpt>
<trkpt lat="47.41276503" lon="7.07418680"><ele>437.056519</ele><time>2006-04-20T15:49:42Z</time></trkpt>
<trkpt lat="47.41209984" lon="7.07399368"><ele>435.614502</ele><time>2006-04-20T15:49:57Z</time></trkpt>
<trkpt lat="47.41126299" lon="7.07365036"><ele>440.421265</ele><time>2006-04-20T15:50:16Z</time></trkpt>
<trkpt lat="47.41079092" lon="7.07350016"><ele>442.824463</ele><time>2006-04-20T15:50:28Z</time></trkpt>
<trkpt lat="47.41051197" lon="7.07315683"><ele>443.785767</ele><time>2006-04-20T15:50:40Z</time></trkpt>
<trkpt lat="47.40988970" lon="7.07184792"><ele>447.150269</ele><time>2006-04-20T15:51:16Z</time></trkpt>
<trkpt lat="47.40937471" lon="7.07131147"><ele>451.476318</ele><time>2006-04-20T15:51:34Z</time></trkpt>
<trkpt lat="47.40894556" lon="7.07077503"><ele>455.802246</ele><time>2006-04-20T15:51:49Z</time></trkpt>
<trkpt lat="47.40855932" lon="7.07045317"><ele>459.16687</ele><time>2006-04-20T15:52:01Z</time></trkpt>
<trkpt lat="47.40819454" lon="7.07002401"><ele>462.050781</ele><time>2006-04-20T15:52:14Z</time></trkpt>
<trkpt lat="47.40774393" lon="7.06955194"><ele>462.531372</ele><time>2006-04-20T15:52:30Z</time></trkpt>
<trkpt lat="47.40637064" lon="7.06787825"><ele>470.702637</ele><time>2006-04-20T15:53:33Z</time></trkpt>
<trkpt lat="47.40572691" lon="7.06736326"><ele>475.509277</ele><time>2006-04-20T15:54:02Z</time></trkpt>
<trkpt lat="47.40461111" lon="7.06736326"><ele>477.431885</ele><time>2006-04-20T15:54:30Z</time></trkpt>
<trkpt lat="47.40304470" lon="7.06691265"><ele>481.277222</ele><time>2006-04-20T15:54:59Z</time></trkpt>
<trkpt lat="47.40261555" lon="7.06671953"><ele>482.238525</ele><time>2006-04-20T15:55:08Z</time></trkpt>
<trkpt lat="47.40248680" lon="7.06652641"><ele>483.199829</ele><time>2006-04-20T15:55:12Z</time></trkpt>
<trkpt lat="47.40233660" lon="7.06646204"><ele>483.68042</ele><time>2006-04-20T15:55:16Z</time></trkpt>
<trkpt lat="47.40197182" lon="7.06652641"><ele>483.68042</ele><time>2006-04-20T15:55:27Z</time></trkpt>
<trkpt lat="47.40167141" lon="7.06686974"><ele>484.161133</ele><time>2006-04-20T15:55:40Z</time></trkpt>
<trkpt lat="47.40126371" lon="7.06727743"><ele>483.68042</ele><time>2006-04-20T15:55:52Z</time></trkpt>
<trkpt lat="47.40128517" lon="7.06781387"><ele>483.199829</ele><time>2006-04-20T15:56:00Z</time></trkpt>
<trkpt lat="47.40145683" lon="7.06948757"><ele>482.238525</ele><time>2006-04-20T15:56:15Z</time></trkpt>
<trkpt lat="47.40145683" lon="7.06987381"><ele>482.719238</ele><time>2006-04-20T15:56:18Z</time></trkpt>
<trkpt lat="47.40126371" lon="7.07139730"><ele>480.315918</ele><time>2006-04-20T15:56:31Z</time></trkpt>
<trkpt lat="47.40111351" lon="7.07341433"><ele>478.393188</ele><time>2006-04-20T15:56:50Z</time></trkpt>
<trkpt lat="47.40098476" lon="7.07371473"><ele>476.470581</ele><time>2006-04-20T15:56:54Z</time></trkpt>
<trkpt lat="47.40066290" lon="7.07418680"><ele>472.144653</ele><time>2006-04-20T15:57:00Z</time></trkpt>
<trkpt lat="47.40053415" lon="7.07478762"><ele>468.299316</ele><time>2006-04-20T15:57:06Z</time></trkpt>
<trkpt lat="47.40053415" lon="7.07508802"><ele>465.415527</ele><time>2006-04-20T15:57:09Z</time></trkpt>
<trkpt lat="47.40057707" lon="7.07525969"><ele>464.454102</ele><time>2006-04-20T15:57:11Z</time></trkpt>
<trkpt lat="47.40049124" lon="7.07523823"><ele>463.973389</ele><time>2006-04-20T15:57:16Z</time></trkpt>
<trkpt lat="47.40016937" lon="7.07450867"><ele>466.857422</ele><time>2006-04-20T15:57:31Z</time></trkpt>
<trkpt lat="47.39993334" lon="7.07347870"><ele>467.818726</ele><time>2006-04-20T15:57:45Z</time></trkpt>
<trkpt lat="47.39969730" lon="7.07208395"><ele>470.221924</ele><time>2006-04-20T15:58:03Z</time></trkpt>
<trkpt lat="47.39941835" lon="7.07129002"><ele>473.58667</ele><time>2006-04-20T15:58:15Z</time></trkpt>
<trkpt lat="47.39933252" lon="7.07111835"><ele>474.547974</ele><time>2006-04-20T15:58:18Z</time></trkpt>
<trkpt lat="47.39913940" lon="7.07105398"><ele>475.509277</ele><time>2006-04-20T15:58:23Z</time></trkpt>
<trkpt lat="47.39858150" lon="7.07103252"><ele>476.470581</ele><time>2006-04-20T15:58:37Z</time></trkpt>
<trkpt lat="47.39789486" lon="7.07107544"><ele>478.393188</ele><time>2006-04-20T15:58:52Z</time></trkpt>
<trkpt lat="47.39667177" lon="7.07105398"><ele>485.603027</ele><time>2006-04-20T15:59:32Z</time></trkpt>
<trkpt lat="47.39609241" lon="7.07096815"><ele>487.525635</ele><time>2006-04-20T15:59:47Z</time></trkpt>
<trkpt lat="47.39549160" lon="7.07077503"><ele>487.525635</ele><time>2006-04-20T16:00:01Z</time></trkpt>
<trkpt lat="47.39396811" lon="7.07041025"><ele>485.603027</ele><time>2006-04-20T16:00:29Z</time></trkpt>
<trkpt lat="47.39375353" lon="7.07026005"><ele>486.08374</ele><time>2006-04-20T16:00:33Z</time></trkpt>
<trkpt lat="47.39345312" lon="7.07036734"><ele>483.199829</ele><time>2006-04-20T16:00:39Z</time></trkpt>
<trkpt lat="47.39353895" lon="7.07124710"><ele>475.989868</ele><time>2006-04-20T16:02:50Z</time></trkpt>
<trkpt lat="47.39373207" lon="7.07204103"><ele>471.18335</ele><time>2006-04-20T16:03:01Z</time></trkpt>
<trkpt lat="47.39371061" lon="7.07210541"><ele>470.702637</ele><time>2006-04-20T16:03:03Z</time></trkpt>
<trkpt lat="47.39326000" lon="7.07214832"><ele>474.067261</ele><time>2006-04-20T16:03:21Z</time></trkpt>
<trkpt lat="47.39287376" lon="7.07197666"><ele>481.277222</ele><time>2006-04-20T16:03:47Z</time></trkpt>
<trkpt lat="47.39257336" lon="7.07189083"><ele>485.603027</ele><time>2006-04-20T16:04:04Z</time></trkpt>
<trkpt lat="47.39238024" lon="7.07206249"><ele>488.487183</ele><time>2006-04-20T16:04:17Z</time></trkpt>
<trkpt lat="47.39210129" lon="7.07238436"><ele>491.370972</ele><time>2006-04-20T16:04:34Z</time></trkpt>
<trkpt lat="47.39158630" lon="7.07279205"><ele>496.658325</ele><time>2006-04-20T16:05:02Z</time></trkpt>
<trkpt lat="47.39102840" lon="7.07330704"><ele>503.868164</ele><time>2006-04-20T16:05:29Z</time></trkpt>
<trkpt lat="47.39072800" lon="7.07332850"><ele>505.310181</ele><time>2006-04-20T16:05:40Z</time></trkpt>
<trkpt lat="47.39008427" lon="7.07317829"><ele>507.232788</ele><time>2006-04-20T16:05:57Z</time></trkpt>
<trkpt lat="47.38980532" lon="7.07326412"><ele>509.636108</ele><time>2006-04-20T16:06:08Z</time></trkpt>
<trkpt lat="47.38954782" lon="7.07356453"><ele>513.962036</ele><time>2006-04-20T16:06:23Z</time></trkpt>
<trkpt lat="47.38937616" lon="7.07384348"><ele>515.884644</ele><time>2006-04-20T16:06:36Z</time></trkpt>
<trkpt lat="47.38924742" lon="7.07412243"><ele>521.171997</ele><time>2006-04-20T16:06:48Z</time></trkpt>
<trkpt lat="47.38886118" lon="7.07521677"><ele>532.227051</ele><time>2006-04-20T16:07:34Z</time></trkpt>
<trkpt lat="47.38879681" lon="7.07566738"><ele>535.591553</ele><time>2006-04-20T16:07:51Z</time></trkpt>
<trkpt lat="47.38883972" lon="7.07613945"><ele>538.475708</ele><time>2006-04-20T16:08:08Z</time></trkpt>
<trkpt lat="47.38871098" lon="7.07633257"><ele>540.878906</ele><time>2006-04-20T16:08:19Z</time></trkpt>
<trkpt lat="47.38841057" lon="7.07656860"><ele>541.84021</ele><time>2006-04-20T16:08:35Z</time></trkpt>
<trkpt lat="47.38832474" lon="7.07695484"><ele>545.204834</ele><time>2006-04-20T16:08:48Z</time></trkpt>
<trkpt lat="47.38832474" lon="7.07740545"><ele>547.608154</ele><time>2006-04-20T16:09:01Z</time></trkpt>
<trkpt lat="47.38828182" lon="7.07802773"><ele>549.050049</ele><time>2006-04-20T16:09:16Z</time></trkpt>
<trkpt lat="47.38815308" lon="7.07862854"><ele>552.414551</ele><time>2006-04-20T16:09:29Z</time></trkpt>
<trkpt lat="47.38808870" lon="7.07955122"><ele>557.702148</ele><time>2006-04-20T16:09:47Z</time></trkpt>
<trkpt lat="47.38791704" lon="7.08002329"><ele>558.182861</ele><time>2006-04-20T16:09:58Z</time></trkpt>
<trkpt lat="47.38750935" lon="7.08019495"><ele>559.144043</ele><time>2006-04-20T16:10:10Z</time></trkpt>
<trkpt lat="47.38705873" lon="7.07993746"><ele>560.585938</ele><time>2006-04-20T16:10:25Z</time></trkpt>
<trkpt lat="47.38671541" lon="7.07989454"><ele>562.028076</ele><time>2006-04-20T16:10:36Z</time></trkpt>
<trkpt lat="47.38630772" lon="7.08015203"><ele>564.911865</ele><time>2006-04-20T16:10:51Z</time></trkpt>
<trkpt lat="47.38536358" lon="7.08105326"><ele>573.563965</ele><time>2006-04-20T16:11:34Z</time></trkpt>
<trkpt lat="47.38508463" lon="7.08146095"><ele>576.447754</ele><time>2006-04-20T16:11:49Z</time></trkpt>
<trkpt lat="47.38426924" lon="7.08287716"><ele>585.580078</ele><time>2006-04-20T16:12:40Z</time></trkpt>
<trkpt lat="47.38394737" lon="7.08384275"><ele>591.348145</ele><time>2006-04-20T16:13:12Z</time></trkpt>
<trkpt lat="47.38364697" lon="7.08487272"><ele>596.635498</ele><time>2006-04-20T16:13:43Z</time></trkpt>
<trkpt lat="47.38345385" lon="7.08540916"><ele>599.519287</ele><time>2006-04-20T16:13:59Z</time></trkpt>
<trkpt lat="47.38317490" lon="7.08558083"><ele>600.961182</ele><time>2006-04-20T16:14:09Z</time></trkpt>
<trkpt lat="47.38274574" lon="7.08540916"><ele>604.806641</ele><time>2006-04-20T16:14:23Z</time></trkpt>
<trkpt lat="47.38240242" lon="7.08515167"><ele>605.768066</ele><time>2006-04-20T16:14:37Z</time></trkpt>
<trkpt lat="47.38212347" lon="7.08467960"><ele>609.132568</ele><time>2006-04-20T16:14:54Z</time></trkpt>
<trkpt lat="47.38199472" lon="7.08427191"><ele>612.49707</ele><time>2006-04-20T16:15:08Z</time></trkpt>
<trkpt lat="47.38132954" lon="7.08257675"><ele>620.187744</ele><time>2006-04-20T16:15:59Z</time></trkpt>
<trkpt lat="47.38132954" lon="7.08214760"><ele>623.071777</ele><time>2006-04-20T16:16:12Z</time></trkpt>
<trkpt lat="47.38143682" lon="7.08165407"><ele>624.994385</ele><time>2006-04-20T16:16:27Z</time></trkpt>
<trkpt lat="47.38141537" lon="7.08116055"><ele>627.397705</ele><time>2006-04-20T16:16:42Z</time></trkpt>
<trkpt lat="47.38132954" lon="7.08060265"><ele>628.358887</ele><time>2006-04-20T16:16:57Z</time></trkpt>
<trkpt lat="47.38128662" lon="7.08006620"><ele>633.645996</ele><time>2006-04-20T16:17:14Z</time></trkpt>
<trkpt lat="47.38087893" lon="7.07871437"><ele>646.143311</ele><time>2006-04-20T16:18:03Z</time></trkpt>
<trkpt lat="47.38042831" lon="7.07751274"><ele>652.391846</ele><time>2006-04-20T16:18:48Z</time></trkpt>
<trkpt lat="47.38006353" lon="7.07669735"><ele>651.911133</ele><time>2006-04-20T16:19:20Z</time></trkpt>
<trkpt lat="47.37952709" lon="7.07530260"><ele>651.911133</ele><time>2006-04-20T16:20:06Z</time></trkpt>
<trkpt lat="47.37954855" lon="7.07461596"><ele>653.353271</ele><time>2006-04-20T16:20:28Z</time></trkpt>
<trkpt lat="47.38038540" lon="7.07380056"><ele>655.275879</ele><time>2006-04-20T16:20:47Z</time></trkpt>
<trkpt lat="47.38064289" lon="7.07369328"><ele>661.524414</ele><time>2006-04-20T16:21:05Z</time></trkpt>
<trkpt lat="47.38077164" lon="7.07330704"><ele>662.966309</ele><time>2006-04-20T16:21:17Z</time></trkpt>
<trkpt lat="47.38092184" lon="7.07259893"><ele>662.966309</ele><time>2006-04-20T16:21:48Z</time></trkpt>
<trkpt lat="47.38066435" lon="7.07148314"><ele>666.811523</ele><time>2006-04-20T16:22:14Z</time></trkpt>
<trkpt lat="47.38057852" lon="7.07092524"><ele>672.098877</ele><time>2006-04-20T16:22:29Z</time></trkpt>
<trkpt lat="47.38034248" lon="7.06987381"><ele>675.944092</ele><time>2006-04-20T16:23:06Z</time></trkpt>
<trkpt lat="47.38023520" lon="7.06832886"><ele>693.247803</ele><time>2006-04-20T16:23:55Z</time></trkpt>
<trkpt lat="47.38008499" lon="7.06762075"><ele>696.612549</ele><time>2006-04-20T16:24:15Z</time></trkpt>
<trkpt lat="47.37959146" lon="7.06614017"><ele>703.341797</ele><time>2006-04-20T16:25:02Z</time></trkpt>
<trkpt lat="47.37941980" lon="7.06541061"><ele>712.954834</ele><time>2006-04-20T16:25:22Z</time></trkpt>
<trkpt lat="47.37944126" lon="7.06498146"><ele>715.838867</ele><time>2006-04-20T16:25:36Z</time></trkpt>
<trkpt lat="47.37933397" lon="7.06474543"><ele>716.800293</ele><time>2006-04-20T16:25:45Z</time></trkpt>
<trkpt lat="47.37909794" lon="7.06480980"><ele>724.490723</ele><time>2006-04-20T16:25:58Z</time></trkpt>
<trkpt lat="47.37899065" lon="7.06519604"><ele>730.739258</ele><time>2006-04-20T16:26:15Z</time></trkpt>
<trkpt lat="47.37881899" lon="7.06661224"><ele>739.391113</ele><time>2006-04-20T16:27:06Z</time></trkpt>
<trkpt lat="47.37875462" lon="7.06671953"><ele>737.949219</ele><time>2006-04-20T16:27:12Z</time></trkpt>
<trkpt lat="47.37860441" lon="7.06768513"><ele>741.794434</ele><time>2006-04-20T16:27:48Z</time></trkpt>
<trkpt lat="47.37851858" lon="7.06845760"><ele>736.507324</ele><time>2006-04-20T16:28:13Z</time></trkpt>
<trkpt lat="47.37843275" lon="7.06873655"><ele>740.352539</ele><time>2006-04-20T16:28:27Z</time></trkpt>
<trkpt lat="47.37826109" lon="7.06976652"><ele>744.678223</ele><time>2006-04-20T16:29:07Z</time></trkpt>
<trkpt lat="47.37802505" lon="7.07051754"><ele>754.772217</ele><time>2006-04-20T16:29:40Z</time></trkpt>
<trkpt lat="47.37789631" lon="7.07081795"><ele>760.540039</ele><time>2006-04-20T16:29:54Z</time></trkpt>
<trkpt lat="47.37763882" lon="7.07126856"><ele>765.346924</ele><time>2006-04-20T16:30:13Z</time></trkpt>
<trkpt lat="47.37742424" lon="7.07182646"><ele>764.866211</ele><time>2006-04-20T16:30:33Z</time></trkpt>
<trkpt lat="47.37716675" lon="7.07219124"><ele>767.75</ele><time>2006-04-20T16:30:47Z</time></trkpt>
<trkpt lat="47.37684488" lon="7.07201958"><ele>770.634033</ele><time>2006-04-20T16:31:00Z</time></trkpt>
<trkpt lat="47.37594366" lon="7.07079649"><ele>773.998535</ele><time>2006-04-20T16:31:38Z</time></trkpt>
<trkpt lat="47.37527847" lon="7.06948757"><ele>779.766357</ele><time>2006-04-20T16:32:15Z</time></trkpt>
<trkpt lat="47.37508535" lon="7.06871510"><ele>782.650635</ele><time>2006-04-20T16:32:35Z</time></trkpt>
<trkpt lat="47.37472057" lon="7.06828594"><ele>782.169922</ele><time>2006-04-20T16:32:53Z</time></trkpt>
<trkpt lat="47.37437725" lon="7.06800699"><ele>781.689209</ele><time>2006-04-20T16:33:11Z</time></trkpt>
<trkpt lat="47.37403393" lon="7.06701994"><ele>781.20874</ele><time>2006-04-20T16:33:44Z</time></trkpt>
<trkpt lat="47.37392664" lon="7.06586123"><ele>780.728027</ele><time>2006-04-20T16:34:17Z</time></trkpt>
<trkpt lat="47.37379789" lon="7.06508875"><ele>782.650635</ele><time>2006-04-20T16:34:39Z</time></trkpt>
<trkpt lat="47.37369061" lon="7.06272840"><ele>783.131104</ele><time>2006-04-20T16:35:13Z</time></trkpt>
<trkpt lat="47.37366915" lon="7.06266403"><ele>783.131104</ele><time>2006-04-20T16:35:16Z</time></trkpt>
<trkpt lat="47.37349749" lon="7.06290007"><ele>775.921143</ele><time>2006-04-20T16:35:28Z</time></trkpt>
<trkpt lat="47.37375498" lon="7.06182718"><ele>811.009277</ele><time>2006-04-20T16:35:40Z</time></trkpt>
<trkpt lat="47.37362623" lon="7.06118345"><ele>815.335449</ele><time>2006-04-20T16:35:58Z</time></trkpt>
<trkpt lat="47.37341166" lon="7.06077576"><ele>814.854736</ele><time>2006-04-20T16:36:15Z</time></trkpt>
<trkpt lat="47.37323999" lon="7.05985308"><ele>819.180664</ele><time>2006-04-20T16:36:48Z</time></trkpt>
<trkpt lat="47.37306833" lon="7.05912352"><ele>821.103271</ele><time>2006-04-20T16:37:10Z</time></trkpt>
<trkpt lat="47.37253189" lon="7.05768585"><ele>822.064453</ele><time>2006-04-20T16:37:48Z</time></trkpt>
<trkpt lat="47.37231731" lon="7.05704212"><ele>821.58374</ele><time>2006-04-20T16:38:05Z</time></trkpt>
<trkpt lat="47.37208128" lon="7.05616236"><ele>826.390381</ele><time>2006-04-20T16:38:29Z</time></trkpt>
<trkpt lat="47.37154484" lon="7.05493927"><ele>826.871094</ele><time>2006-04-20T16:39:10Z</time></trkpt>
<trkpt lat="47.37062216" lon="7.05257893"><ele>852.82666</ele><time>2006-04-20T16:40:04Z</time></trkpt>
<trkpt lat="47.37030029" lon="7.05193520"><ele>858.114014</ele><time>2006-04-20T16:40:20Z</time></trkpt>
<trkpt lat="47.37002134" lon="7.05144167"><ele>859.075195</ele><time>2006-04-20T16:40:37Z</time></trkpt>
<trkpt lat="47.36982822" lon="7.05137730"><ele>862.439941</ele><time>2006-04-20T16:40:56Z</time></trkpt>
<trkpt lat="47.36984968" lon="7.05133438"><ele>864.843262</ele><time>2006-04-20T16:44:27Z</time></trkpt>
<trkpt lat="47.37002134" lon="7.05137730"><ele>867.246582</ele><time>2006-04-20T16:44:38Z</time></trkpt>
<trkpt lat="47.37012863" lon="7.05099106"><ele>872.052979</ele><time>2006-04-20T16:45:00Z</time></trkpt>
<trkpt lat="47.37019300" lon="7.05118418"><ele>870.130371</ele><time>2006-04-20T16:45:47Z</time></trkpt>
<trkpt lat="47.37072945" lon="7.05092669"><ele>872.533691</ele><time>2006-04-20T16:46:15Z</time></trkpt>
<trkpt lat="47.37152338" lon="7.05002546"><ele>871.091797</ele><time>2006-04-20T16:46:30Z</time></trkpt>
<trkpt lat="47.37173796" lon="7.04933882"><ele>869.169189</ele><time>2006-04-20T16:46:46Z</time></trkpt>
<trkpt lat="47.37199545" lon="7.04802990"><ele>867.727051</ele><time>2006-04-20T16:47:18Z</time></trkpt>
<trkpt lat="47.37210274" lon="7.04710722"><ele>865.804688</ele><time>2006-04-20T16:47:40Z</time></trkpt>
<trkpt lat="47.37221003" lon="7.04614162"><ele>868.207764</ele><time>2006-04-20T16:48:04Z</time></trkpt>
<trkpt lat="47.37227440" lon="7.04519749"><ele>868.207764</ele><time>2006-04-20T16:48:26Z</time></trkpt>
<trkpt lat="47.37227440" lon="7.04444647"><ele>868.207764</ele><time>2006-04-20T16:48:42Z</time></trkpt>
<trkpt lat="47.37233877" lon="7.04354525"><ele>867.727051</ele><time>2006-04-20T16:49:03Z</time></trkpt>
<trkpt lat="47.37255335" lon="7.04217196"><ele>868.207764</ele><time>2006-04-20T16:49:33Z</time></trkpt>
<trkpt lat="47.37334728" lon="7.04049826"><ele>868.688477</ele><time>2006-04-20T16:50:07Z</time></trkpt>
<trkpt lat="47.37392664" lon="7.03685045"><ele>868.688477</ele><time>2006-04-20T16:50:24Z</time></trkpt>
<trkpt lat="47.37403393" lon="7.03691483"><ele>867.727051</ele><time>2006-04-20T16:50:29Z</time></trkpt>
<trkpt lat="47.37409830" lon="7.03736544"><ele>864.362549</ele><time>2006-04-20T16:50:34Z</time></trkpt>
<trkpt lat="47.37414122" lon="7.03871727"><ele>862.920654</ele><time>2006-04-20T16:50:56Z</time></trkpt>
<trkpt lat="47.37431288" lon="7.04172134"><ele>863.401367</ele><time>2006-04-20T16:51:46Z</time></trkpt>
<trkpt lat="47.37446308" lon="7.04367399"><ele>863.401367</ele><time>2006-04-20T16:52:15Z</time></trkpt>
<trkpt lat="47.37439871" lon="7.04524040"><ele>861.959473</ele><time>2006-04-20T16:52:35Z</time></trkpt>
<trkpt lat="47.37446308" lon="7.04736471"><ele>861.959473</ele><time>2006-04-20T16:52:59Z</time></trkpt>
<trkpt lat="47.37435579" lon="7.04974651"><ele>857.633301</ele><time>2006-04-20T16:53:23Z</time></trkpt>
<trkpt lat="47.37420559" lon="7.05092669"><ele>856.671875</ele><time>2006-04-20T16:53:41Z</time></trkpt>
<trkpt lat="47.37396955" lon="7.05341578"><ele>856.191162</ele><time>2006-04-20T16:54:19Z</time></trkpt>
<trkpt lat="47.37409830" lon="7.05345869"><ele>854.749268</ele><time>2006-04-20T16:54:23Z</time></trkpt>
<trkpt lat="47.37444162" lon="7.05292225"><ele>847.539551</ele><time>2006-04-20T16:54:34Z</time></trkpt>
<trkpt lat="47.37457037" lon="7.05266476"><ele>847.539551</ele><time>2006-04-20T16:54:39Z</time></trkpt>
<trkpt lat="47.37504244" lon="7.05133438"><ele>843.213379</ele><time>2006-04-20T16:54:54Z</time></trkpt>
<trkpt lat="47.37643719" lon="7.04835176"><ele>836.964844</ele><time>2006-04-20T16:55:29Z</time></trkpt>
<trkpt lat="47.37714529" lon="7.04669952"><ele>729.777832</ele><time>2006-04-20T16:55:51Z</time></trkpt>
<trkpt lat="47.37770319" lon="7.04581976"><ele>734.104004</ele><time>2006-04-20T16:56:05Z</time></trkpt>
<trkpt lat="47.37757444" lon="7.04590559"><ele>733.623291</ele><time>2006-04-20T16:56:14Z</time></trkpt>
<trkpt lat="47.37785339" lon="7.04539061"><ele>746.120361</ele><time>2006-04-20T16:57:29Z</time></trkpt>
<trkpt lat="47.37808943" lon="7.04468250"><ele>747.081543</ele><time>2006-04-20T16:57:44Z</time></trkpt>
<trkpt lat="47.37858295" lon="7.04290152"><ele>747.081543</ele><time>2006-04-20T16:58:25Z</time></trkpt>
<trkpt lat="47.37869024" lon="7.04090595"><ele>747.081543</ele><time>2006-04-20T16:58:27Z</time></trkpt>
<trkpt lat="47.37856150" lon="7.03931808"><ele>747.081543</ele><time>2006-04-20T16:58:47Z</time></trkpt>
<trkpt lat="47.37849712" lon="7.03745127"><ele>747.562256</ele><time>2006-04-20T16:59:05Z</time></trkpt>
<trkpt lat="47.37836838" lon="7.03605652"><ele>747.562256</ele><time>2006-04-20T16:59:17Z</time></trkpt>
<trkpt lat="47.37851858" lon="7.03135729"><ele>747.562256</ele><time>2006-04-20T17:00:02Z</time></trkpt>
<trkpt lat="47.37875462" lon="7.03086376"><ele>607.209961</ele><time>2006-04-20T17:00:10Z</time></trkpt>
<trkpt lat="47.37920523" lon="7.03022003"><ele>600</ele><time>2006-04-20T17:00:24Z</time></trkpt>
<trkpt lat="47.37969875" lon="7.02961922"><ele>598.077393</ele><time>2006-04-20T17:00:32Z</time></trkpt>
<trkpt lat="47.37995625" lon="7.02925444"><ele>597.59668</ele><time>2006-04-20T17:00:37Z</time></trkpt>
<trkpt lat="47.38021374" lon="7.02908278"><ele>594.712646</ele><time>2006-04-20T17:00:44Z</time></trkpt>
<trkpt lat="47.38130808" lon="7.02929735"><ele>589.90625</ele><time>2006-04-20T17:01:06Z</time></trkpt>
<trkpt lat="47.38238096" lon="7.03002691"><ele>581.734863</ele><time>2006-04-20T17:01:20Z</time></trkpt>
<trkpt lat="47.38323927" lon="7.03017712"><ele>573.563965</ele><time>2006-04-20T17:01:30Z</time></trkpt>
<trkpt lat="47.38392591" lon="7.03039169"><ele>569.718506</ele><time>2006-04-20T17:01:40Z</time></trkpt>
<trkpt lat="47.38422632" lon="7.03056335"><ele>568.75708</ele><time>2006-04-20T17:01:45Z</time></trkpt>
<trkpt lat="47.38444090" lon="7.03079939"><ele>568.276367</ele><time>2006-04-20T17:01:49Z</time></trkpt>
<trkpt lat="47.38527775" lon="7.03230143"><ele>564.431152</ele><time>2006-04-20T17:02:14Z</time></trkpt>
<trkpt lat="47.38630772" lon="7.03438282"><ele>556.740723</ele><time>2006-04-20T17:02:40Z</time></trkpt>
<trkpt lat="47.38742352" lon="7.03635693"><ele>544.724243</ele><time>2006-04-20T17:03:02Z</time></trkpt>
<trkpt lat="47.38750935" lon="7.03657150"><ele>543.282104</ele><time>2006-04-20T17:03:06Z</time></trkpt>
<trkpt lat="47.38757372" lon="7.03689337"><ele>542.320923</ele><time>2006-04-20T17:03:10Z</time></trkpt>
<trkpt lat="47.38757372" lon="7.03727961"><ele>541.84021</ele><time>2006-04-20T17:03:14Z</time></trkpt>
<trkpt lat="47.38776684" lon="7.03758001"><ele>540.878906</ele><time>2006-04-20T17:03:19Z</time></trkpt>
<trkpt lat="47.38795996" lon="7.03760147"><ele>540.398315</ele><time>2006-04-20T17:03:23Z</time></trkpt>
<trkpt lat="47.38815308" lon="7.03792334"><ele>539.43689</ele><time>2006-04-20T17:03:29Z</time></trkpt>
<trkpt lat="47.38823891" lon="7.03871727"><ele>536.072388</ele><time>2006-04-20T17:03:37Z</time></trkpt>
<trkpt lat="47.38849640" lon="7.03914642"><ele>533.188354</ele><time>2006-04-20T17:03:43Z</time></trkpt>
<trkpt lat="47.38856077" lon="7.03944683"><ele>531.746338</ele><time>2006-04-20T17:03:46Z</time></trkpt>
<trkpt lat="47.38866806" lon="7.04103470"><ele>525.497803</ele><time>2006-04-20T17:04:00Z</time></trkpt>
<trkpt lat="47.38849640" lon="7.04200029"><ele>522.613892</ele><time>2006-04-20T17:04:08Z</time></trkpt>
<trkpt lat="47.38847494" lon="7.04328775"><ele>519.729858</ele><time>2006-04-20T17:04:19Z</time></trkpt>
<trkpt lat="47.38866806" lon="7.04395294"><ele>517.807251</ele><time>2006-04-20T17:04:27Z</time></trkpt>
<trkpt lat="47.38999844" lon="7.04624891"><ele>507.232788</ele><time>2006-04-20T17:05:01Z</time></trkpt>
<trkpt lat="47.39036322" lon="7.04732180"><ele>504.348877</ele><time>2006-04-20T17:05:10Z</time></trkpt>
<trkpt lat="47.39053488" lon="7.04873800"><ele>500.50354</ele><time>2006-04-20T17:05:21Z</time></trkpt>
<trkpt lat="47.39081383" lon="7.04989672"><ele>496.658325</ele><time>2006-04-20T17:05:30Z</time></trkpt>
<trkpt lat="47.39197254" lon="7.05249310"><ele>492.332397</ele><time>2006-04-20T17:05:53Z</time></trkpt>
<trkpt lat="47.39238024" lon="7.05367327"><ele>490.890381</ele><time>2006-04-20T17:06:04Z</time></trkpt>
<trkpt lat="47.39306688" lon="7.05491781"><ele>488.487183</ele><time>2006-04-20T17:06:17Z</time></trkpt>
<trkpt lat="47.39413977" lon="7.05669880"><ele>485.603027</ele><time>2006-04-20T17:06:38Z</time></trkpt>
<trkpt lat="47.39420414" lon="7.05695629"><ele>485.603027</ele><time>2006-04-20T17:06:56Z</time></trkpt>
<trkpt lat="47.39422560" lon="7.05695629"><ele>484.161133</ele><time>2006-04-20T17:07:35Z</time></trkpt>
<trkpt lat="47.39521265" lon="7.05897331"><ele>484.641846</ele><time>2006-04-20T17:08:10Z</time></trkpt>
<trkpt lat="47.39579201" lon="7.06004620"><ele>484.161133</ele><time>2006-04-20T17:08:25Z</time></trkpt>
<trkpt lat="47.39643574" lon="7.06088305"><ele>484.161133</ele><time>2006-04-20T17:08:38Z</time></trkpt>
<trkpt lat="47.39667177" lon="7.06139803"><ele>484.641846</ele><time>2006-04-20T17:08:46Z</time></trkpt>
<trkpt lat="47.39686489" lon="7.06229925"><ele>486.08374</ele><time>2006-04-20T17:08:58Z</time></trkpt>
<trkpt lat="47.39753008" lon="7.06457376"><ele>490.890381</ele><time>2006-04-20T17:09:34Z</time></trkpt>
<trkpt lat="47.39770174" lon="7.06549644"><ele>492.812988</ele><time>2006-04-20T17:09:49Z</time></trkpt>
<trkpt lat="47.39800215" lon="7.06614017"><ele>492.812988</ele><time>2006-04-20T17:10:01Z</time></trkpt>
<trkpt lat="47.39843130" lon="7.06682682"><ele>492.332397</ele><time>2006-04-20T17:10:13Z</time></trkpt>
<trkpt lat="47.39901066" lon="7.07002401"><ele>478.873901</ele><time>2006-04-20T17:10:45Z</time></trkpt>
<trkpt lat="47.39935398" lon="7.07122564"><ele>474.067261</ele><time>2006-04-20T17:10:55Z</time></trkpt>
<trkpt lat="47.39971876" lon="7.07234144"><ele>470.702637</ele><time>2006-04-20T17:11:04Z</time></trkpt>
<trkpt lat="47.39989042" lon="7.07345724"><ele>468.299316</ele><time>2006-04-20T17:11:14Z</time></trkpt>
<trkpt lat="47.40021229" lon="7.07476616"><ele>465.415527</ele><time>2006-04-20T17:11:27Z</time></trkpt>
<trkpt lat="47.40074873" lon="7.07624674"><ele>460.128174</ele><time>2006-04-20T17:11:42Z</time></trkpt>
<trkpt lat="47.40089893" lon="7.07716942"><ele>454.84082</ele><time>2006-04-20T17:11:49Z</time></trkpt>
<trkpt lat="47.40111351" lon="7.07759857"><ele>452.918213</ele><time>2006-04-20T17:11:53Z</time></trkpt>
<trkpt lat="47.40192890" lon="7.07865000"><ele>450.034424</ele><time>2006-04-20T17:12:06Z</time></trkpt>
<trkpt lat="47.40250826" lon="7.07910061"><ele>449.553711</ele><time>2006-04-20T17:12:15Z</time></trkpt>
<trkpt lat="47.40283012" lon="7.07927227"><ele>449.553711</ele><time>2006-04-20T17:12:21Z</time></trkpt>
<trkpt lat="47.40295887" lon="7.07931519"><ele>449.072998</ele><time>2006-04-20T17:12:23Z</time></trkpt>
<trkpt lat="47.40358114" lon="7.07931519"><ele>449.072998</ele><time>2006-04-20T17:12:35Z</time></trkpt>
<trkpt lat="47.40373135" lon="7.07944393"><ele>447.630981</ele><time>2006-04-20T17:12:39Z</time></trkpt>
<trkpt lat="47.40383863" lon="7.07983017"><ele>447.630981</ele><time>2006-04-20T17:12:47Z</time></trkpt>
<trkpt lat="47.40401030" lon="7.07993746"><ele>447.630981</ele><time>2006-04-20T17:12:53Z</time></trkpt>
<trkpt lat="47.40411758" lon="7.07993746"><ele>447.150269</ele><time>2006-04-20T17:12:55Z</time></trkpt>
<trkpt lat="47.40476131" lon="7.07955122"><ele>445.708374</ele><time>2006-04-20T17:13:06Z</time></trkpt>
<trkpt lat="47.40619898" lon="7.07813501"><ele>444.74707</ele><time>2006-04-20T17:13:30Z</time></trkpt>
<trkpt lat="47.40647793" lon="7.07796335"><ele>444.74707</ele><time>2006-04-20T17:13:34Z</time></trkpt>
<trkpt lat="47.40748644" lon="7.07800627"><ele>445.227661</ele><time>2006-04-20T17:13:48Z</time></trkpt>
<trkpt lat="47.40860224" lon="7.07798481"><ele>441.382446</ele><time>2006-04-20T17:14:04Z</time></trkpt>
<trkpt lat="47.40946054" lon="7.07768440"><ele>440.901855</ele><time>2006-04-20T17:14:17Z</time></trkpt>
<trkpt lat="47.41055489" lon="7.07755566"><ele>439.94043</ele><time>2006-04-20T17:14:32Z</time></trkpt>
<trkpt lat="47.41132736" lon="7.07753420"><ele>438.498535</ele><time>2006-04-20T17:14:45Z</time></trkpt>
<trkpt lat="47.41149902" lon="7.07719088"><ele>438.017822</ele><time>2006-04-20T17:14:51Z</time></trkpt>
<trkpt lat="47.41194963" lon="7.07656860"><ele>437.056519</ele><time>2006-04-20T17:15:01Z</time></trkpt>
<trkpt lat="47.41227150" lon="7.07624674"><ele>437.056519</ele><time>2006-04-20T17:15:07Z</time></trkpt>
<trkpt lat="47.41248608" lon="7.07616091"><ele>437.537109</ele><time>2006-04-20T17:15:11Z</time></trkpt>
<trkpt lat="47.41276503" lon="7.07613945"><ele>438.498535</ele><time>2006-04-20T17:15:16Z</time></trkpt>
<trkpt lat="47.41336584" lon="7.07594633"><ele>438.979126</ele><time>2006-04-20T17:15:35Z</time></trkpt>
<trkpt lat="47.41345167" lon="7.07515240"><ele>440.421265</ele><time>2006-04-20T17:15:48Z</time></trkpt>
<trkpt lat="47.41362333" lon="7.07502365"><ele>440.901855</ele><time>2006-04-20T17:15:52Z</time></trkpt>
<trkpt lat="47.41446018" lon="7.07463741"><ele>445.227661</ele><time>2006-04-20T17:16:09Z</time></trkpt>
<trkpt lat="47.41463184" lon="7.07491636"><ele>445.227661</ele><time>2006-04-20T17:16:16Z</time></trkpt>
<trkpt lat="47.41482496" lon="7.07547426"><ele>446.189087</ele><time>2006-04-20T17:16:27Z</time></trkpt>
<trkpt lat="47.41508245" lon="7.07586050"><ele>448.111816</ele><time>2006-04-20T17:16:50Z</time></trkpt>
</trkseg></trk></gpx>